sensor_id;sensor_type;location;lat;lon;timestamp;temperature;humidity
25949;DHT22;13961;51.178;4.448;2022-08-25T00:01:15;24.20;99.90
25949;DHT22;13961;51.178;4.448;2022-08-25T00:03:41;24.30;99.90
25949;DHT22;13961;51.178;4.448;2022-08-25T00:06:08;24.20;99.90
25949;DHT22;13961;51.178;4.448;2022-08-25T00:08:35;24.20;99.90
25949;DHT22;13961;51.178;4.448;2022-08-25T00:11:17;24.00;99.90
25949;DHT22;13961;51.178;4.448;2022-08-25T00:13:46;24.00;99.90
25949;DHT22;13961;51.178;4.448;2022-08-25T00:16:16;24.00;99.90
25949;DHT22;13961;51.178;4.448;2022-08-25T00:18:45;24.00;99.90
25949;DHT22;13961;51.178;4.448;2022-08-25T00:21:12;24.00;99.90
25949;DHT22;13961;51.178;4.448;2022-08-25T00:23:38;23.90;99.90
25949;DHT22;13961;51.178;4.448;2022-08-25T00:26:05;23.90;99.90
25949;DHT22;13961;51.178;4.448;2022-08-25T00:28:31;23.90;99.90
25949;DHT22;13961;51.178;4.448;2022-08-25T00:30:57;23.80;99.90
25949;DHT22;13961;51.178;4.448;2022-08-25T00:33:26;23.80;99.90
25949;DHT22;13961;51.178;4.448;2022-08-25T00:35:52;23.90;99.90
25949;DHT22;13961;51.178;4.448;2022-08-25T00:38:19;23.70;99.90
25949;DHT22;13961;51.178;4.448;2022-08-25T00:40:45;23.70;99.90
25949;DHT22;13961;51.178;4.448;2022-08-25T00:43:11;23.80;99.90
25949;DHT22;13961;51.178;4.448;2022-08-25T00:45:38;23.80;99.90
25949;DHT22;13961;51.178;4.448;2022-08-25T00:48:04;23.70;99.90
25949;DHT22;13961;51.178;4.448;2022-08-25T00:50:32;23.60;99.90
25949;DHT22;13961;51.178;4.448;2022-08-25T00:53:01;23.60;99.90
25949;DHT22;13961;51.178;4.448;2022-08-25T00:55:30;23.60;99.90
25949;DHT22;13961;51.178;4.448;2022-08-25T00:58:13;23.60;99.90
25949;DHT22;13961;51.178;4.448;2022-08-25T01:00:44;23.60;99.90
25949;DHT22;13961;51.178;4.448;2022-08-25T01:03:10;23.70;99.90
25949;DHT22;13961;51.178;4.448;2022-08-25T01:05:36;23.60;99.90
25949;DHT22;13961;51.178;4.448;2022-08-25T01:08:03;23.60;99.90
25949;DHT22;13961;51.178;4.448;2022-08-25T01:10:34;23.50;99.90
25949;DHT22;13961;51.178;4.448;2022-08-25T01:13:14;23.50;99.90
25949;DHT22;13961;51.178;4.448;2022-08-25T01:15:43;23.40;99.90
25949;DHT22;13961;51.178;4.448;2022-08-25T01:18:09;23.40;99.90
25949;DHT22;13961;51.178;4.448;2022-08-25T01:20:36;23.40;99.90
25949;DHT22;13961;51.178;4.448;2022-08-25T01:23:02;23.30;99.90
25949;DHT22;13961;51.178;4.448;2022-08-25T01:28:04;23.30;99.90
25949;DHT22;13961;51.178;4.448;2022-08-25T01:30:30;23.20;99.90
25949;DHT22;13961;51.178;4.448;2022-08-25T01:32:56;23.30;99.90
25949;DHT22;13961;51.178;4.448;2022-08-25T01:35:22;23.20;99.90
25949;DHT22;13961;51.178;4.448;2022-08-25T01:37:48;23.10;99.90
25949;DHT22;13961;51.178;4.448;2022-08-25T01:40:14;23.10;99.90
25949;DHT22;13961;51.178;4.448;2022-08-25T01:42:51;23.10;99.90
25949;DHT22;13961;51.178;4.448;2022-08-25T01:45:18;23.00;99.90
25949;DHT22;13961;51.178;4.448;2022-08-25T01:47:44;23.00;99.90
25949;DHT22;13961;51.178;4.448;2022-08-25T01:50:09;23.00;99.90
25949;DHT22;13961;51.178;4.448;2022-08-25T01:52:50;22.90;99.90
25949;DHT22;13961;51.178;4.448;2022-08-25T01:55:18;22.90;99.90
25949;DHT22;13961;51.178;4.448;2022-08-25T01:57:44;22.80;99.90
25949;DHT22;13961;51.178;4.448;2022-08-25T02:00:11;22.90;99.90
25949;DHT22;13961;51.178;4.448;2022-08-25T02:02:38;22.90;99.90
25949;DHT22;13961;51.178;4.448;2022-08-25T02:05:06;22.80;99.90
25949;DHT22;13961;51.178;4.448;2022-08-25T02:07:31;22.80;99.90
25949;DHT22;13961;51.178;4.448;2022-08-25T02:09:57;22.70;99.90
25949;DHT22;13961;51.178;4.448;2022-08-25T02:12:23;22.70;99.90
25949;DHT22;13961;51.178;4.448;2022-08-25T02:14:49;22.70;99.90
25949;DHT22;13961;51.178;4.448;2022-08-25T02:17:15;22.60;99.90
25949;DHT22;13961;51.178;4.448;2022-08-25T02:19:41;22.50;99.90
25949;DHT22;13961;51.178;4.448;2022-08-25T02:22:07;22.50;99.90
25949;DHT22;13961;51.178;4.448;2022-08-25T02:24:33;22.40;99.90
25949;DHT22;13961;51.178;4.448;2022-08-25T02:26:59;22.40;99.90
25949;DHT22;13961;51.178;4.448;2022-08-25T02:29:25;22.40;99.90
25949;DHT22;13961;51.178;4.448;2022-08-25T02:31:51;22.30;99.90
25949;DHT22;13961;51.178;4.448;2022-08-25T02:34:17;22.30;99.90
25949;DHT22;13961;51.178;4.448;2022-08-25T02:36:42;22.30;99.90
25949;DHT22;13961;51.178;4.448;2022-08-25T02:39:09;22.20;99.90
25949;DHT22;13961;51.178;4.448;2022-08-25T02:41:35;22.20;99.90
25949;DHT22;13961;51.178;4.448;2022-08-25T02:44:02;22.20;99.90
25949;DHT22;13961;51.178;4.448;2022-08-25T02:46:28;22.10;99.90
25949;DHT22;13961;51.178;4.448;2022-08-25T02:48:55;22.00;99.90
25949;DHT22;13961;51.178;4.448;2022-08-25T02:51:23;22.00;99.90
25949;DHT22;13961;51.178;4.448;2022-08-25T02:53:50;21.90;99.90
25949;DHT22;13961;51.178;4.448;2022-08-25T02:56:17;21.90;99.90
25949;DHT22;13961;51.178;4.448;2022-08-25T02:58:43;21.80;99.90
25949;DHT22;13961;51.178;4.448;2022-08-25T03:01:10;21.90;99.90
25949;DHT22;13961;51.178;4.448;2022-08-25T03:03:40;22.00;99.90
25949;DHT22;13961;51.178;4.448;2022-08-25T03:06:11;21.80;99.90
25949;DHT22;13961;51.178;4.448;2022-08-25T03:08:37;21.80;99.90
25949;DHT22;13961;51.178;4.448;2022-08-25T03:11:04;21.80;99.90
25949;DHT22;13961;51.178;4.448;2022-08-25T03:13:30;21.70;99.90
25949;DHT22;13961;51.178;4.448;2022-08-25T03:15:58;21.70;99.90
25949;DHT22;13961;51.178;4.448;2022-08-25T03:18:23;21.70;99.90
25949;DHT22;13961;51.178;4.448;2022-08-25T03:20:49;21.80;99.90
25949;DHT22;13961;51.178;4.448;2022-08-25T03:23:14;21.80;99.90
25949;DHT22;13961;51.178;4.448;2022-08-25T03:25:40;21.70;99.90
25949;DHT22;13961;51.178;4.448;2022-08-25T03:28:25;21.70;99.90
25949;DHT22;13961;51.178;4.448;2022-08-25T03:30:51;21.70;99.90
25949;DHT22;13961;51.178;4.448;2022-08-25T03:33:18;21.60;99.90
25949;DHT22;13961;51.178;4.448;2022-08-25T03:35:44;21.60;99.90
25949;DHT22;13961;51.178;4.448;2022-08-25T03:38:10;21.50;99.90
25949;DHT22;13961;51.178;4.448;2022-08-25T03:40:36;21.50;99.90
25949;DHT22;13961;51.178;4.448;2022-08-25T03:43:03;21.50;99.90
25949;DHT22;13961;51.178;4.448;2022-08-25T03:45:28;21.50;99.90
25949;DHT22;13961;51.178;4.448;2022-08-25T03:47:54;21.50;99.90
25949;DHT22;13961;51.178;4.448;2022-08-25T03:50:23;21.40;99.90
25949;DHT22;13961;51.178;4.448;2022-08-25T03:52:53;21.20;99.90
25949;DHT22;13961;51.178;4.448;2022-08-25T03:55:21;21.40;99.90
25949;DHT22;13961;51.178;4.448;2022-08-25T03:57:47;21.50;99.90
25949;DHT22;13961;51.178;4.448;2022-08-25T04:00:13;21.50;99.90
25949;DHT22;13961;51.178;4.448;2022-08-25T04:02:40;21.40;99.90
25949;DHT22;13961;51.178;4.448;2022-08-25T04:05:06;21.40;99.90
25949;DHT22;13961;51.178;4.448;2022-08-25T04:07:32;21.40;99.90
25949;DHT22;13961;51.178;4.448;2022-08-25T04:09:57;21.50;99.90
25949;DHT22;13961;51.178;4.448;2022-08-25T04:12:23;21.50;99.90
25949;DHT22;13961;51.178;4.448;2022-08-25T04:14:49;21.50;99.90
25949;DHT22;13961;51.178;4.448;2022-08-25T04:17:15;21.50;99.90
25949;DHT22;13961;51.178;4.448;2022-08-25T04:19:41;21.50;99.90
25949;DHT22;13961;51.178;4.448;2022-08-25T04:22:07;21.60;99.90
25949;DHT22;13961;51.178;4.448;2022-08-25T04:24:32;21.50;99.90
25949;DHT22;13961;51.178;4.448;2022-08-25T04:26:58;21.40;99.90
25949;DHT22;13961;51.178;4.448;2022-08-25T04:29:24;21.30;99.90
25949;DHT22;13961;51.178;4.448;2022-08-25T04:31:52;21.20;99.90
25949;DHT22;13961;51.178;4.448;2022-08-25T04:34:20;21.30;99.90
25949;DHT22;13961;51.178;4.448;2022-08-25T04:36:46;21.30;99.90
25949;DHT22;13961;51.178;4.448;2022-08-25T04:39:11;21.30;99.90
25949;DHT22;13961;51.178;4.448;2022-08-25T04:41:38;21.30;99.90
25949;DHT22;13961;51.178;4.448;2022-08-25T04:44:04;21.40;99.90
25949;DHT22;13961;51.178;4.448;2022-08-25T04:46:32;21.30;99.90
25949;DHT22;13961;51.178;4.448;2022-08-25T04:48:59;21.30;99.90
25949;DHT22;13961;51.178;4.448;2022-08-25T04:51:29;21.30;99.90
25949;DHT22;13961;51.178;4.448;2022-08-25T04:53:58;21.30;99.90
25949;DHT22;13961;51.178;4.448;2022-08-25T04:56:25;21.30;99.90
25949;DHT22;13961;51.178;4.448;2022-08-25T04:58:52;21.30;99.90
25949;DHT22;13961;51.178;4.448;2022-08-25T05:01:23;21.30;99.90
25949;DHT22;13961;51.178;4.448;2022-08-25T05:03:55;21.40;99.90
25949;DHT22;13961;51.178;4.448;2022-08-25T05:06:22;21.40;99.90
25949;DHT22;13961;51.178;4.448;2022-08-25T05:08:48;21.40;99.90
25949;DHT22;13961;51.178;4.448;2022-08-25T05:11:15;21.50;99.90
25949;DHT22;13961;51.178;4.448;2022-08-25T05:13:43;21.50;99.90
25949;DHT22;13961;51.178;4.448;2022-08-25T05:16:09;21.60;99.90
25949;DHT22;13961;51.178;4.448;2022-08-25T05:18:35;21.70;99.90
25949;DHT22;13961;51.178;4.448;2022-08-25T05:21:09;21.80;99.90
25949;DHT22;13961;51.178;4.448;2022-08-25T05:23:36;21.70;99.90
25949;DHT22;13961;51.178;4.448;2022-08-25T05:26:10;21.80;99.90
25949;DHT22;13961;51.178;4.448;2022-08-25T05:28:37;21.90;99.90
25949;DHT22;13961;51.178;4.448;2022-08-25T05:31:05;22.00;99.90
25949;DHT22;13961;51.178;4.448;2022-08-25T05:33:33;22.00;99.90
25949;DHT22;13961;51.178;4.448;2022-08-25T05:35:58;22.10;99.90
25949;DHT22;13961;51.178;4.448;2022-08-25T05:38:24;22.00;99.90
25949;DHT22;13961;51.178;4.448;2022-08-25T05:40:58;21.90;99.90
25949;DHT22;13961;51.178;4.448;2022-08-25T05:43:24;22.10;99.90
25949;DHT22;13961;51.178;4.448;2022-08-25T05:45:53;22.20;99.90
25949;DHT22;13961;51.178;4.448;2022-08-25T05:48:19;22.10;99.90
25949;DHT22;13961;51.178;4.448;2022-08-25T05:50:55;22.40;99.90
25949;DHT22;13961;51.178;4.448;2022-08-25T05:53:22;22.60;99.90
25949;DHT22;13961;51.178;4.448;2022-08-25T05:55:50;22.70;99.90
25949;DHT22;13961;51.178;4.448;2022-08-25T05:58:16;22.90;99.90
25949;DHT22;13961;51.178;4.448;2022-08-25T06:00:43;22.90;99.90
25949;DHT22;13961;51.178;4.448;2022-08-25T06:03:08;22.80;99.90
25949;DHT22;13961;51.178;4.448;2022-08-25T06:05:34;22.70;99.90
25949;DHT22;13961;51.178;4.448;2022-08-25T06:08:00;22.80;99.90
25949;DHT22;13961;51.178;4.448;2022-08-25T06:10:26;22.70;99.90
25949;DHT22;13961;51.178;4.448;2022-08-25T06:12:52;22.70;99.90
25949;DHT22;13961;51.178;4.448;2022-08-25T06:15:19;22.90;99.90
25949;DHT22;13961;51.178;4.448;2022-08-25T06:17:47;23.10;99.90
25949;DHT22;13961;51.178;4.448;2022-08-25T06:20:22;23.00;99.90
25949;DHT22;13961;51.178;4.448;2022-08-25T06:22:48;23.00;99.90
25949;DHT22;13961;51.178;4.448;2022-08-25T06:25:16;23.20;99.90
25949;DHT22;13961;51.178;4.448;2022-08-25T06:27:42;23.20;99.90
25949;DHT22;13961;51.178;4.448;2022-08-25T06:30:10;23.20;99.90
25949;DHT22;13961;51.178;4.448;2022-08-25T06:32:38;23.40;99.90
25949;DHT22;13961;51.178;4.448;2022-08-25T06:35:07;23.60;99.90
25949;DHT22;13961;51.178;4.448;2022-08-25T06:37:33;23.90;99.90
25949;DHT22;13961;51.178;4.448;2022-08-25T06:39:58;24.40;99.90
25949;DHT22;13961;51.178;4.448;2022-08-25T06:42:24;25.10;99.90
25949;DHT22;13961;51.178;4.448;2022-08-25T06:44:50;26.10;99.90
25949;DHT22;13961;51.178;4.448;2022-08-25T06:47:15;27.50;99.90
25949;DHT22;13961;51.178;4.448;2022-08-25T06:49:42;28.40;99.90
25949;DHT22;13961;51.178;4.448;2022-08-25T06:52:08;29.30;99.90
25949;DHT22;13961;51.178;4.448;2022-08-25T06:54:34;30.10;99.90
25949;DHT22;13961;51.178;4.448;2022-08-25T06:57:01;30.30;99.90
25949;DHT22;13961;51.178;4.448;2022-08-25T06:59:27;30.80;99.90
25949;DHT22;13961;51.178;4.448;2022-08-25T07:01:52;31.70;98.90
25949;DHT22;13961;51.178;4.448;2022-08-25T07:04:18;31.50;98.40
25949;DHT22;13961;51.178;4.448;2022-08-25T07:06:44;32.40;97.90
25949;DHT22;13961;51.178;4.448;2022-08-25T07:09:11;32.50;95.90
25949;DHT22;13961;51.178;4.448;2022-08-25T07:11:38;31.20;96.80
25949;DHT22;13961;51.178;4.448;2022-08-25T07:14:05;30.80;97.50
25949;DHT22;13961;51.178;4.448;2022-08-25T07:16:32;31.10;97.20
25949;DHT22;13961;51.178;4.448;2022-08-25T07:18:59;31.10;97.20
25949;DHT22;13961;51.178;4.448;2022-08-25T07:21:26;31.50;96.40
25949;DHT22;13961;51.178;4.448;2022-08-25T07:23:52;32.00;95.30
25949;DHT22;13961;51.178;4.448;2022-08-25T07:26:24;32.00;95.50
25949;DHT22;13961;51.178;4.448;2022-08-25T07:28:50;31.90;95.70
25949;DHT22;13961;51.178;4.448;2022-08-25T07:31:16;31.50;95.50
25949;DHT22;13961;51.178;4.448;2022-08-25T07:33:42;31.20;95.20
25949;DHT22;13961;51.178;4.448;2022-08-25T07:36:28;30.70;95.90
25949;DHT22;13961;51.178;4.448;2022-08-25T07:38:54;30.60;96.80
25949;DHT22;13961;51.178;4.448;2022-08-25T07:41:21;30.80;97.30
25949;DHT22;13961;51.178;4.448;2022-08-25T07:43:46;30.40;96.40
25949;DHT22;13961;51.178;4.448;2022-08-25T07:46:12;30.10;96.90
25949;DHT22;13961;51.178;4.448;2022-08-25T07:48:38;29.80;96.80
25949;DHT22;13961;51.178;4.448;2022-08-25T07:51:12;29.40;97.40
25949;DHT22;13961;51.178;4.448;2022-08-25T07:53:38;29.10;97.80
25949;DHT22;13961;51.178;4.448;2022-08-25T07:56:10;29.20;97.90
25949;DHT22;13961;51.178;4.448;2022-08-25T07:58:36;29.70;97.80
25949;DHT22;13961;51.178;4.448;2022-08-25T08:01:02;30.20;97.00
25949;DHT22;13961;51.178;4.448;2022-08-25T08:03:28;30.20;96.60
25949;DHT22;13961;51.178;4.448;2022-08-25T08:05:54;29.80;97.10
25949;DHT22;13961;51.178;4.448;2022-08-25T08:08:21;29.90;97.60
25949;DHT22;13961;51.178;4.448;2022-08-25T08:10:46;30.20;97.10
25949;DHT22;13961;51.178;4.448;2022-08-25T08:13:14;30.50;96.80
25949;DHT22;13961;51.178;4.448;2022-08-25T08:15:42;30.60;96.40
25949;DHT22;13961;51.178;4.448;2022-08-25T08:18:08;30.10;96.20
25949;DHT22;13961;51.178;4.448;2022-08-25T08:20:35;30.10;96.70
25949;DHT22;13961;51.178;4.448;2022-08-25T08:23:01;30.00;96.70
25949;DHT22;13961;51.178;4.448;2022-08-25T08:25:27;29.30;97.50
25949;DHT22;13961;51.178;4.448;2022-08-25T08:27:54;29.30;99.10
25949;DHT22;13961;51.178;4.448;2022-08-25T08:30:19;29.30;97.80
25949;DHT22;13961;51.178;4.448;2022-08-25T08:32:46;28.80;98.40
25949;DHT22;13961;51.178;4.448;2022-08-25T08:35:15;28.50;98.80
25949;DHT22;13961;51.178;4.448;2022-08-25T08:37:46;28.20;99.30
25949;DHT22;13961;51.178;4.448;2022-08-25T08:40:14;28.50;99.70
25949;DHT22;13961;51.178;4.448;2022-08-25T08:43:06;29.20;99.00
25949;DHT22;13961;51.178;4.448;2022-08-25T08:45:36;30.10;98.00
25949;DHT22;13961;51.178;4.448;2022-08-25T08:48:36;30.30;97.50
25949;DHT22;13961;51.178;4.448;2022-08-25T08:51:20;29.70;97.80
25949;DHT22;13961;51.178;4.448;2022-08-25T08:54:12;29.60;97.60
25949;DHT22;13961;51.178;4.448;2022-08-25T08:56:41;29.80;98.10
25949;DHT22;13961;51.178;4.448;2022-08-25T08:59:19;30.90;96.80
25949;DHT22;13961;51.178;4.448;2022-08-25T09:01:51;32.00;95.50
25949;DHT22;13961;51.178;4.448;2022-08-25T09:04:44;33.10;94.40
25949;DHT22;13961;51.178;4.448;2022-08-25T09:07:15;34.10;93.20
25949;DHT22;13961;51.178;4.448;2022-08-25T09:09:42;33.90;92.50
25949;DHT22;13961;51.178;4.448;2022-08-25T09:12:32;33.90;92.50
25949;DHT22;13961;51.178;4.448;2022-08-25T09:18:04;33.20;92.80
25949;DHT22;13961;51.178;4.448;2022-08-25T09:26:31;30.80;95.30
25949;DHT22;13961;51.178;4.448;2022-08-25T09:29:23;30.30;95.30
25949;DHT22;13961;51.178;4.448;2022-08-25T09:31:49;30.20;95.70
25949;DHT22;13961;51.178;4.448;2022-08-25T09:34:21;30.40;95.70
25949;DHT22;13961;51.178;4.448;2022-08-25T09:36:47;30.50;94.90
25949;DHT22;13961;51.178;4.448;2022-08-25T09:39:15;30.60;95.90
25949;DHT22;13961;51.178;4.448;2022-08-25T09:41:51;30.60;94.80
25949;DHT22;13961;51.178;4.448;2022-08-25T09:44:27;30.60;95.10
25949;DHT22;13961;51.178;4.448;2022-08-25T09:47:06;30.90;96.00
25949;DHT22;13961;51.178;4.448;2022-08-25T09:49:37;30.90;94.80
25949;DHT22;13961;51.178;4.448;2022-08-25T09:52:28;30.70;94.70
25949;DHT22;13961;51.178;4.448;2022-08-25T09:55:29;30.90;95.20
25949;DHT22;13961;51.178;4.448;2022-08-25T09:57:56;31.20;94.30
25949;DHT22;13961;51.178;4.448;2022-08-25T10:00:29;31.10;94.20
25949;DHT22;13961;51.178;4.448;2022-08-25T10:08:30;31.60;94.10
25949;DHT22;13961;51.178;4.448;2022-08-25T10:10:58;31.70;93.20
25949;DHT22;13961;51.178;4.448;2022-08-25T10:14:00;31.70;93.00
25949;DHT22;13961;51.178;4.448;2022-08-25T10:16:29;31.70;93.00
25949;DHT22;13961;51.178;4.448;2022-08-25T10:21:25;31.70;91.70
25949;DHT22;13961;51.178;4.448;2022-08-25T10:23:52;31.80;92.40
25949;DHT22;13961;51.178;4.448;2022-08-25T10:38:35;32.20;90.30
25949;DHT22;13961;51.178;4.448;2022-08-25T10:41:16;32.50;90.80
25949;DHT22;13961;51.178;4.448;2022-08-25T10:44:14;32.70;90.40
25949;DHT22;13961;51.178;4.448;2022-08-25T10:49:47;32.90;90.10
25949;DHT22;13961;51.178;4.448;2022-08-25T10:52:30;33.00;86.40
25949;DHT22;13961;51.178;4.448;2022-08-25T10:55:21;33.00;85.70
25949;DHT22;13961;51.178;4.448;2022-08-25T10:58:05;32.90;85.60
25949;DHT22;13961;51.178;4.448;2022-08-25T11:00:43;33.00;87.60
25949;DHT22;13961;51.178;4.448;2022-08-25T11:03:50;33.00;86.00
25949;DHT22;13961;51.178;4.448;2022-08-25T11:06:32;33.00;84.70
25949;DHT22;13961;51.178;4.448;2022-08-25T11:09:04;33.10;83.90
25949;DHT22;13961;51.178;4.448;2022-08-25T11:11:52;33.20;83.30
25949;DHT22;13961;51.178;4.448;2022-08-25T11:14:39;33.10;82.60
25949;DHT22;13961;51.178;4.448;2022-08-25T11:17:17;33.10;80.60
25949;DHT22;13961;51.178;4.448;2022-08-25T11:19:46;33.20;81.00
25949;DHT22;13961;51.178;4.448;2022-08-25T11:22:28;33.10;81.90
25949;DHT22;13961;51.178;4.448;2022-08-25T11:27:43;33.40;79.80
25949;DHT22;13961;51.178;4.448;2022-08-25T11:30:11;33.40;79.20
25949;DHT22;13961;51.178;4.448;2022-08-25T11:32:38;33.50;80.10
25949;DHT22;13961;51.178;4.448;2022-08-25T11:35:10;33.60;79.60
25949;DHT22;13961;51.178;4.448;2022-08-25T11:49:38;33.70;75.80
25949;DHT22;13961;51.178;4.448;2022-08-25T11:55:19;34.20;74.60
25949;DHT22;13961;51.178;4.448;2022-08-25T11:57:48;34.40;73.60
25949;DHT22;13961;51.178;4.448;2022-08-25T12:02:58;34.40;72.40
25949;DHT22;13961;51.178;4.448;2022-08-25T12:13:47;34.30;75.30
25949;DHT22;13961;51.178;4.448;2022-08-25T12:21:47;34.60;72.50
25949;DHT22;13961;51.178;4.448;2022-08-25T12:24:14;34.50;71.90
25949;DHT22;13961;51.178;4.448;2022-08-25T12:26:50;34.40;72.90
25949;DHT22;13961;51.178;4.448;2022-08-25T12:29:52;34.50;72.10
25949;DHT22;13961;51.178;4.448;2022-08-25T12:45:46;34.50;70.40
25949;DHT22;13961;51.178;4.448;2022-08-25T12:50:58;34.60;69.10
25949;DHT22;13961;51.178;4.448;2022-08-25T12:53:37;34.80;68.60
25949;DHT22;13961;51.178;4.448;2022-08-25T12:56:17;35.30;70.30
25949;DHT22;13961;51.178;4.448;2022-08-25T12:58:54;35.50;68.70
25949;DHT22;13961;51.178;4.448;2022-08-25T13:04:19;34.90;69.60
25949;DHT22;13961;51.178;4.448;2022-08-25T13:12:21;34.80;68.90
25949;DHT22;13961;51.178;4.448;2022-08-25T13:14:54;35.00;68.50
25949;DHT22;13961;51.178;4.448;2022-08-25T13:17:34;35.20;68.60
25949;DHT22;13961;51.178;4.448;2022-08-25T13:20:38;35.00;67.60
25949;DHT22;13961;51.178;4.448;2022-08-25T13:23:04;34.80;67.50
25949;DHT22;13961;51.178;4.448;2022-08-25T13:25:30;34.20;69.20
25949;DHT22;13961;51.178;4.448;2022-08-25T13:27:59;34.10;79.00
25949;DHT22;13961;51.178;4.448;2022-08-25T13:30:32;33.50;83.30
25949;DHT22;13961;51.178;4.448;2022-08-25T13:32:59;33.20;85.90
25949;DHT22;13961;51.178;4.448;2022-08-25T13:35:28;33.10;86.90
25949;DHT22;13961;51.178;4.448;2022-08-25T13:38:14;33.10;87.70
25949;DHT22;13961;51.178;4.448;2022-08-25T13:40:40;33.10;88.80
25949;DHT22;13961;51.178;4.448;2022-08-25T13:43:09;32.90;89.70
25949;DHT22;13961;51.178;4.448;2022-08-25T13:45:41;32.60;90.20
25949;DHT22;13961;51.178;4.448;2022-08-25T13:48:12;32.20;91.50
25949;DHT22;13961;51.178;4.448;2022-08-25T13:50:42;32.00;91.60
25949;DHT22;13961;51.178;4.448;2022-08-25T13:53:34;31.90;92.20
25949;DHT22;13961;51.178;4.448;2022-08-25T13:56:01;32.10;92.20
25949;DHT22;13961;51.178;4.448;2022-08-25T13:58:33;32.20;92.60
25949;DHT22;13961;51.178;4.448;2022-08-25T14:01:00;32.40;92.60
25949;DHT22;13961;51.178;4.448;2022-08-25T14:03:36;32.60;92.40
25949;DHT22;13961;51.178;4.448;2022-08-25T14:06:06;32.60;92.80
25949;DHT22;13961;51.178;4.448;2022-08-25T14:08:37;32.60;93.10
25949;DHT22;13961;51.178;4.448;2022-08-25T14:14:02;32.70;93.20
25949;DHT22;13961;51.178;4.448;2022-08-25T14:16:31;32.60;93.20
25949;DHT22;13961;51.178;4.448;2022-08-25T14:19:00;32.40;93.50
25949;DHT22;13961;51.178;4.448;2022-08-25T14:21:30;32.20;93.80
25949;DHT22;13961;51.178;4.448;2022-08-25T14:23:57;32.40;93.20
25949;DHT22;13961;51.178;4.448;2022-08-25T14:26:24;32.70;93.30
25949;DHT22;13961;51.178;4.448;2022-08-25T14:28:50;33.00;92.60
25949;DHT22;13961;51.178;4.448;2022-08-25T14:34:01;32.90;92.20
25949;DHT22;13961;51.178;4.448;2022-08-25T14:36:29;32.70;92.40
25949;DHT22;13961;51.178;4.448;2022-08-25T14:38:55;32.70;92.40
25949;DHT22;13961;51.178;4.448;2022-08-25T14:41:22;32.70;91.90
25949;DHT22;13961;51.178;4.448;2022-08-25T14:43:48;32.70;92.40
25949;DHT22;13961;51.178;4.448;2022-08-25T14:46:20;32.60;92.30
25949;DHT22;13961;51.178;4.448;2022-08-25T14:48:50;32.80;92.50
25949;DHT22;13961;51.178;4.448;2022-08-25T14:51:19;32.80;92.40
25949;DHT22;13961;51.178;4.448;2022-08-25T14:53:45;32.90;92.50
25949;DHT22;13961;51.178;4.448;2022-08-25T14:56:11;32.80;91.20
25949;DHT22;13961;51.178;4.448;2022-08-25T14:58:37;32.70;91.30
25949;DHT22;13961;51.178;4.448;2022-08-25T15:01:04;32.50;91.10
25949;DHT22;13961;51.178;4.448;2022-08-25T15:03:36;32.20;91.80
25949;DHT22;13961;51.178;4.448;2022-08-25T15:06:03;31.70;93.00
25949;DHT22;13961;51.178;4.448;2022-08-25T15:08:29;31.30;94.80
25949;DHT22;13961;51.178;4.448;2022-08-25T15:11:13;31.10;95.60
25949;DHT22;13961;51.178;4.448;2022-08-25T15:13:39;31.00;97.00
25949;DHT22;13961;51.178;4.448;2022-08-25T15:16:06;30.90;97.80
25949;DHT22;13961;51.178;4.448;2022-08-25T15:18:33;31.00;98.20
25949;DHT22;13961;51.178;4.448;2022-08-25T15:20:58;31.00;98.20
25949;DHT22;13961;51.178;4.448;2022-08-25T15:23:24;30.90;98.30
25949;DHT22;13961;51.178;4.448;2022-08-25T15:25:53;30.70;98.10
25949;DHT22;13961;51.178;4.448;2022-08-25T15:28:19;30.80;97.20
25949;DHT22;13961;51.178;4.448;2022-08-25T15:30:45;30.70;96.20
25949;DHT22;13961;51.178;4.448;2022-08-25T15:33:11;30.70;97.30
25949;DHT22;13961;51.178;4.448;2022-08-25T15:35:36;30.80;98.20
25949;DHT22;13961;51.178;4.448;2022-08-25T15:38:02;30.50;99.90
25949;DHT22;13961;51.178;4.448;2022-08-25T15:40:28;30.30;99.90
25949;DHT22;13961;51.178;4.448;2022-08-25T15:42:53;30.10;99.90
25949;DHT22;13961;51.178;4.448;2022-08-25T15:45:19;30.00;99.90
25949;DHT22;13961;51.178;4.448;2022-08-25T15:47:45;29.90;99.90
25949;DHT22;13961;51.178;4.448;2022-08-25T15:50:14;30.00;99.90
25949;DHT22;13961;51.178;4.448;2022-08-25T15:52:40;29.80;99.90
25949;DHT22;13961;51.178;4.448;2022-08-25T15:55:08;29.60;99.90
25949;DHT22;13961;51.178;4.448;2022-08-25T15:57:33;29.60;99.90
25949;DHT22;13961;51.178;4.448;2022-08-25T15:59:59;29.70;99.90
25949;DHT22;13961;51.178;4.448;2022-08-25T16:02:25;29.70;99.90
25949;DHT22;13961;51.178;4.448;2022-08-25T16:04:51;29.70;99.90
25949;DHT22;13961;51.178;4.448;2022-08-25T16:07:18;29.40;99.90
25949;DHT22;13961;51.178;4.448;2022-08-25T16:09:45;29.00;99.90
25949;DHT22;13961;51.178;4.448;2022-08-25T16:12:11;28.90;99.90
25949;DHT22;13961;51.178;4.448;2022-08-25T16:14:37;28.50;99.90
25949;DHT22;13961;51.178;4.448;2022-08-25T16:17:04;28.10;99.90
25949;DHT22;13961;51.178;4.448;2022-08-25T16:19:30;28.00;99.90
25949;DHT22;13961;51.178;4.448;2022-08-25T16:21:56;28.00;99.90
25949;DHT22;13961;51.178;4.448;2022-08-25T16:24:22;27.80;99.90
25949;DHT22;13961;51.178;4.448;2022-08-25T16:26:48;27.80;99.90
25949;DHT22;13961;51.178;4.448;2022-08-25T16:29:15;27.90;99.90
25949;DHT22;13961;51.178;4.448;2022-08-25T16:31:41;27.80;99.90
25949;DHT22;13961;51.178;4.448;2022-08-25T16:34:07;27.60;99.90
25949;DHT22;13961;51.178;4.448;2022-08-25T16:36:33;27.60;99.90
25949;DHT22;13961;51.178;4.448;2022-08-25T16:38:58;27.60;99.90
25949;DHT22;13961;51.178;4.448;2022-08-25T16:41:28;27.60;99.90
25949;DHT22;13961;51.178;4.448;2022-08-25T16:44:03;27.60;99.90
25949;DHT22;13961;51.178;4.448;2022-08-25T16:46:30;27.30;99.90
25949;DHT22;13961;51.178;4.448;2022-08-25T16:48:59;27.20;99.90
25949;DHT22;13961;51.178;4.448;2022-08-25T16:51:25;27.20;99.90
25949;DHT22;13961;51.178;4.448;2022-08-25T16:53:51;27.00;99.90
25949;DHT22;13961;51.178;4.448;2022-08-25T16:56:36;26.80;99.90
25949;DHT22;13961;51.178;4.448;2022-08-25T16:59:04;26.80;99.90
25949;DHT22;13961;51.178;4.448;2022-08-25T17:01:31;26.90;99.90
25949;DHT22;13961;51.178;4.448;2022-08-25T17:03:59;27.00;99.90
25949;DHT22;13961;51.178;4.448;2022-08-25T17:06:27;27.00;99.90
25949;DHT22;13961;51.178;4.448;2022-08-25T17:08:53;26.90;99.90
25949;DHT22;13961;51.178;4.448;2022-08-25T17:13:49;26.60;99.90
25949;DHT22;13961;51.178;4.448;2022-08-25T17:16:15;26.60;99.90
25949;DHT22;13961;51.178;4.448;2022-08-25T17:18:41;26.40;99.90
25949;DHT22;13961;51.178;4.448;2022-08-25T17:21:10;26.20;99.90
25949;DHT22;13961;51.178;4.448;2022-08-25T17:23:41;26.20;99.90
25949;DHT22;13961;51.178;4.448;2022-08-25T17:26:09;26.00;99.90